Aviation Digital Data Service (ADDS)

Output produced by METARs form (0242 UTC 24 July 2017)
found at http://www.aviationweather.gov/adds/metars/
 
KOAJ 240227Z 2402/2424 VRB05KT P6SM BKN025 
     FM240400 21007KT P6SM SCT025 BKN200 
     FM240900 21007KT P6SM SCT025 BKN080 
     FM241500 21010G18KT P6SM -SHRA VCTS BKN050CB AMD LTD TO CLD VIS AND WIND
       
KOAK 232320Z 2400/2506 30013KT P6SM SKC 
     FM240400 31005KT P6SM SKC 
     FM240700 31006KT P6SM SCT012 
     FM240900 31005KT P6SM OVC010 
     FM241700 28004KT P6SM SCT015 
     FM241900 29012KT P6SM FEW015 
     FM250400 29008KT P6SM FEW015
       
TAF KOFF 240200Z 2402/2508 VRB06KT 9999 SKC QNH2993INS TX29/2420Z TN14/2411Z
       
KOFK 232329Z 2400/2424 01008KT P6SM SKC 
     FM240300 06004KT P6SM SKC 
     FM240900 13004KT P6SM FEW200 
     FM241500 14008KT P6SM FEW200 
     FM242100 16012KT P6SM FEW250
       
KOGB 240221Z 2402/2424 21009KT P6SM -SHRA SCT040 BKN050 
     TEMPO 2402/2404 3SM BR 
     FM240400 22005KT P6SM VCSH SCT050 BKN150 
     FM240800 VRB04KT P6SM SCT008 
     FM241400 23007KT P6SM SCT050
       
KOGD 232326Z 2400/2424 33011KT P6SM FEW100 BKN200 
     FM240200 16010KT P6SM SCT100 BKN180 
     FM241900 30010KT P6SM SCT090 BKN180
       
KOKC 232320Z 2400/2424 07018KT P6SM VCTS BKN120CB OVC250 
     FM240100 11006KT P6SM SCT100 BKN250
       
KOLF 232330Z 2400/2424 20007KT P6SM FEW250 
     FM240600 11010KT P6SM FEW190 WS020/16035KT 
     FM241500 29012KT P6SM FEW110
       
KOLM 232320Z 2400/2424 36006KT P6SM SCT035 
     FM240200 02010KT P6SM SKC 
     FM241200 VRB03KT P6SM SCT005 
     FM241600 36006KT P6SM SKC
       
KOLS 232332Z 2400/2424 24005KT P6SM VCSH SCT070 BKN120 
     FM240300 14005KT P6SM SCT070 BKN120 
     FM240700 VRB03KT P6SM FEW070 BKN150 
     FM241800 20007KT P6SM VCSH SCT060 BKN150
       
KOMA 232355Z 2400/2424 35009KT P6SM SKC 
     FM240200 36005KT P6SM SKC 
     FM240600 06004KT P6SM SKC 
     TEMPO 2410/2413 5SM BR 
     FM241500 12005KT P6SM FEW250
       
KONP 232325Z 2400/2424 35023G31KT P6SM SKC 
     FM240600 34018G28KT P6SM BKN015 
     FM240900 36010KT 6SM BR OVC007 
     FM241600 35012G20KT P6SM OVC015 
     FM241900 35018G28KT P6SM SKC
       
KONT 232332Z 2400/2506 25011G18KT P6SM SCT100 
     FM240400 VRB04KT P6SM SCT150 
     FM241400 VRB04KT 5SM HZ SCT150 
     FM241600 VRB04KT P6SM SCT100 
     FM242000 25010G18KT P6SM SCT100 
     FM250400 VRB04KT P6SM SCT150
       
KOPF 232320Z 2400/2424 13009KT P6SM FEW100 BKN200 
     FM240200 00000KT P6SM FEW030 SCT250 
     FM241600 10006KT P6SM SCT030 SCT250
       
KORD 232323Z 2400/2506 32007KT P6SM SCT040 BKN110 
     FM241200 02011KT P6SM SCT015 BKN020 
     FM241800 03010KT P6SM SCT040 
     FM250100 04006KT P6SM SCT150
       
KORF 240108Z 2401/2424 19017KT P6SM VCSH BKN050 BKN250 
     FM240300 24009KT P6SM VCSH BKN050 BKN120 
     FM240900 22007KT P6SM SCT250 
     FM242100 23011KT P6SM SCT050
       
KORH 232325Z 2400/2424 09005KT P6SM SCT100 
     FM241000 08006KT P6SM -RA BKN050 
     FM241500 07008KT 3SM -RA BR OVC008 
     FM241800 06009KT P6SM VCSH OVC008 
     FM242000 06009KT P6SM -RA OVC010 
     FM242200 05009KT P6SM VCSH SCT008 OVC010
       
KOSH 232339Z 2400/2424 04011G17KT P6SM SCT045 BKN070 
     FM240600 01007G15KT P6SM BKN021 
     FM240800 01007KT P6SM BKN019 
     FM241400 03008KT P6SM SCT040 BKN080 
     FM241900 04007KT P6SM SCT060 
     FM242300 09004KT P6SM SKC
       
KOTH 232334Z 2400/2424 36020G35KT P6SM FEW100 
     FM240600 36014G25KT P6SM SCT012 
     FM240800 36012G20KT P6SM OVC015 
     FM241100 36010KT 6SM BR OVC005 
     FM241600 36011KT P6SM OVC008
       
KOTM 232320Z 2400/2424 34014KT P6SM SKC 
     FM240200 36006KT P6SM SKC 
     TEMPO 2410/2413 3SM BR SCT014 
     FM241700 04005KT P6SM SCT100
       
KOUN 232320Z 2400/2424 09011KT P6SM VCTS BKN120CB OVC250 
     FM240100 11006KT P6SM SCT100 BKN250
       
KOWB 232322Z 2400/2424 31005KT P6SM SCT250 
     FM240800 VRB03KT 2SM BR SCT250 
     FM241400 29004KT P6SM FEW030
       
KOXR 232333Z 2400/2424 23008KT P6SM BKN009 
     FM240500 VRB03KT 6SM BR OVC007 
     FM241800 23007KT P6SM OVC010
       
TAF KOZR 240000Z 2400/2506 19006KT 9999 SCT030 QNH2990INS 
     BECMG 2405/2406 VRB06KT 8000 BR BKN015 QNH2995INS 
     BECMG 2411/2412 25006KT 9999 NSW FEW020 SCT150 QNH2998INS 
     BECMG 2417/2418 26009KT 8000 -SHRA SCT040 BKN070 QNH2997INS 
     TEMPO 2419/2423 27020G30KT 4800 -TSRA BKN025CB 
     BECMG 2423/2424 25006KT 9999 NSW SCT015 BKN060 QNH2999INS TX33/2420Z TN23/2410Z